createdAt,value
2022-10-28T00:01:25.396Z,76.50
2022-10-28T00:03:56.680Z,76.80
2022-10-28T00:06:31.738Z,76.90
2022-10-28T00:09:00.446Z,76.80
2022-10-28T00:11:34.192Z,76.60
2022-10-28T00:14:06.129Z,76.40
2022-10-28T00:16:37.266Z,76.10
2022-10-28T00:19:07.940Z,75.80
2022-10-28T00:21:37.978Z,75.60
2022-10-28T00:24:07.891Z,75.50
2022-10-28T00:26:39.005Z,75.40
2022-10-28T00:29:10.841Z,75.10
2022-10-28T00:31:39.387Z,74.80
2022-10-28T00:34:16.659Z,74.70
2022-10-28T00:36:46.949Z,74.70
2022-10-28T00:39:21.134Z,74.80
2022-10-28T00:41:59.034Z,74.70
2022-10-28T00:44:59.163Z,74.50
2022-10-28T00:47:56.395Z,73.90
2022-10-28T00:50:51.937Z,73.40
2022-10-28T00:53:28.435Z,72.10
2022-10-28T00:56:00.283Z,71.80
2022-10-28T00:58:28.709Z,71.90
2022-10-28T01:00:56.717Z,71.60
2022-10-28T01:03:25.126Z,71.40
2022-10-28T01:05:53.357Z,71.10
2022-10-28T01:08:21.353Z,71.20
2022-10-28T01:11:34.165Z,71.20
2022-10-28T01:14:30.605Z,71.00
2022-10-28T01:17:39.605Z,71.00
2022-10-28T01:21:22.359Z,70.80
2022-10-28T01:24:11.671Z,70.80
2022-10-28T01:27:02.929Z,71.20
2022-10-28T01:29:53.977Z,70.90
2022-10-28T01:32:40.326Z,70.20
2022-10-28T01:35:40.057Z,70.70
2022-10-28T01:38:48.764Z,70.00
2022-10-28T01:41:45.255Z,70.20
2022-10-28T01:44:32.569Z,70.30
2022-10-28T01:47:28.692Z,70.60
2022-10-28T01:50:02.025Z,70.20
2022-10-28T01:52:32.071Z,70.70
2022-10-28T01:55:17.902Z,70.60
2022-10-28T01:57:47.969Z,70.60
2022-10-28T02:00:16.288Z,70.70
2022-10-28T02:02:45.208Z,70.80
2022-10-28T02:05:48.614Z,71.00
2022-10-28T02:08:19.033Z,70.90
2022-10-28T02:11:23.113Z,71.30
2022-10-28T02:14:48.033Z,70.70
2022-10-28T02:17:29.382Z,71.20
2022-10-28T02:20:18.566Z,71.70
2022-10-28T02:23:15.503Z,72.10
2022-10-28T02:25:56.338Z,72.40
2022-10-28T02:28:49.923Z,72.70
2022-10-28T02:31:44.213Z,73.00
2022-10-28T02:34:37.170Z,73.70
2022-10-28T02:37:13.453Z,74.30
2022-10-28T02:39:46.394Z,74.40
2022-10-28T02:42:28.519Z,74.50
2022-10-28T02:45:13.934Z,74.40
2022-10-28T02:47:51.518Z,74.40
2022-10-28T02:50:25.667Z,74.20
2022-10-28T02:52:58.528Z,74.30
2022-10-28T02:55:36.051Z,74.20
2022-10-28T02:58:05.180Z,74.00
2022-10-28T03:00:32.947Z,73.70
2022-10-28T03:03:00.756Z,73.60
2022-10-28T03:05:28.609Z,73.30
2022-10-28T03:07:56.427Z,73.70
2022-10-28T03:10:24.467Z,72.30
2022-10-28T03:12:52.285Z,72.20
2022-10-28T03:15:20.160Z,72.00
2022-10-28T03:17:47.913Z,71.80
2022-10-28T03:20:15.885Z,71.80
2022-10-28T03:22:44.370Z,71.90
2022-10-28T03:25:12.243Z,72.10
2022-10-28T03:27:41.492Z,72.50
2022-10-28T03:30:10.099Z,72.50
2022-10-28T03:32:40.986Z,72.90
2022-10-28T03:35:09.054Z,73.10
2022-10-28T03:37:36.927Z,73.10
2022-10-28T03:40:07.969Z,73.20
2022-10-28T03:42:38.852Z,73.30
2022-10-28T03:45:10.312Z,73.60
2022-10-28T03:47:38.096Z,73.10
2022-10-28T03:50:06.471Z,72.70
2022-10-28T03:52:34.261Z,72.50
2022-10-28T03:55:02.010Z,72.50
2022-10-28T03:57:34.087Z,72.60
2022-10-28T04:00:02.183Z,72.60
2022-10-28T04:02:39.403Z,72.20
2022-10-28T04:05:07.923Z,72.00
2022-10-28T04:07:35.867Z,71.50
2022-10-28T04:10:04.020Z,70.80
2022-10-28T04:12:31.790Z,70.40
2022-10-28T04:15:00.287Z,70.40
2022-10-28T04:17:28.052Z,70.40
2022-10-28T04:19:55.946Z,70.20
2022-10-28T04:22:23.708Z,70.00
2022-10-28T04:24:52.938Z,69.60
2022-10-28T04:27:21.534Z,69.40
2022-10-28T04:29:49.343Z,69.00
2022-10-28T04:32:17.079Z,69.10
2022-10-28T04:34:44.842Z,68.80
2022-10-28T04:37:14.911Z,68.90
2022-10-28T04:39:44.743Z,68.50
2022-10-28T04:42:12.535Z,68.50
2022-10-28T04:44:40.257Z,68.50
2022-10-28T04:47:08.116Z,68.20
2022-10-28T04:49:38.145Z,67.90
2022-10-28T04:52:08.803Z,68.30
2022-10-28T04:54:38.746Z,68.10
2022-10-28T04:57:06.713Z,67.80
2022-10-28T04:59:34.571Z,67.50
2022-10-28T05:02:02.535Z,67.40
2022-10-28T05:04:30.423Z,67.40
2022-10-28T05:06:58.188Z,67.40
2022-10-28T05:09:25.936Z,67.20
2022-10-28T05:11:54.449Z,67.40
2022-10-28T05:14:22.257Z,66.70
2022-10-28T05:16:50.040Z,66.10
2022-10-28T05:19:17.831Z,65.80
2022-10-28T05:21:45.549Z,65.90
2022-10-28T05:24:13.263Z,65.70
2022-10-28T05:26:41.027Z,65.50
2022-10-28T05:29:08.761Z,65.80
2022-10-28T05:31:36.546Z,65.90
2022-10-28T05:34:04.289Z,65.00
2022-10-28T05:36:32.072Z,64.70
2022-10-28T05:38:59.935Z,64.10
2022-10-28T05:41:27.749Z,63.40
2022-10-28T05:43:55.555Z,62.80
2022-10-28T05:46:23.345Z,62.60
2022-10-28T05:48:51.099Z,62.80
2022-10-28T05:51:18.839Z,62.50
2022-10-28T05:53:46.629Z,62.20
2022-10-28T05:56:14.401Z,62.20
2022-10-28T05:58:42.221Z,61.60
2022-10-28T06:01:10.362Z,61.70
2022-10-28T06:03:38.188Z,61.30
2022-10-28T06:06:06.266Z,60.80
2022-10-28T06:08:36.246Z,61.00
2022-10-28T06:11:08.531Z,60.60
2022-10-28T06:13:36.525Z,61.20
2022-10-28T06:16:05.070Z,60.30
2022-10-28T06:18:32.910Z,61.20
2022-10-28T06:21:00.756Z,61.20
2022-10-28T06:23:28.612Z,61.10
2022-10-28T06:26:02.244Z,60.90
2022-10-28T06:28:30.721Z,58.90
2022-10-28T06:31:04.210Z,59.30
2022-10-28T06:33:32.468Z,58.70
2022-10-28T06:36:01.065Z,59.30
2022-10-28T06:38:29.925Z,58.90
2022-10-28T06:40:58.208Z,58.00
2022-10-28T06:43:26.039Z,58.40
2022-10-28T06:45:55.701Z,58.30
2022-10-28T06:48:25.198Z,58.20
2022-10-28T06:50:57.789Z,58.00
2022-10-28T06:53:29.437Z,58.00
2022-10-28T06:56:00.163Z,58.20
2022-10-28T06:58:28.483Z,57.20
2022-10-28T07:00:56.830Z,57.70
2022-10-28T07:03:25.135Z,59.20
2022-10-28T07:05:53.338Z,59.70
2022-10-28T07:08:21.541Z,61.00
2022-10-28T07:10:57.812Z,59.90
2022-10-28T07:13:26.497Z,59.00
2022-10-28T07:15:57.074Z,59.50
2022-10-28T07:18:27.336Z,59.70
2022-10-28T07:20:59.752Z,59.80
2022-10-28T07:23:29.247Z,59.90
2022-10-28T07:25:57.842Z,60.00
2022-10-28T07:28:26.995Z,60.10
2022-10-28T07:30:55.332Z,59.90
2022-10-28T07:33:23.382Z,60.00
2022-10-28T07:35:51.490Z,60.00
2022-10-28T07:38:19.550Z,60.00
2022-10-28T07:40:47.658Z,59.80
2022-10-28T07:43:15.733Z,59.70
2022-10-28T07:45:43.917Z,59.30
2022-10-28T07:48:12.118Z,59.10
2022-10-28T07:50:43.227Z,58.90
2022-10-28T07:53:11.303Z,58.70
2022-10-28T07:55:39.383Z,59.00
2022-10-28T07:58:07.443Z,59.10
2022-10-28T08:00:35.801Z,58.90
2022-10-28T08:03:04.082Z,58.60
2022-10-28T08:05:32.178Z,58.10
2022-10-28T08:08:00.144Z,57.90
2022-10-28T08:10:28.224Z,58.30
2022-10-28T08:13:00.955Z,58.30
2022-10-28T08:15:30.017Z,57.80
2022-10-28T08:17:58.212Z,58.10
2022-10-28T08:20:26.297Z,58.10
2022-10-28T08:22:54.632Z,57.70
2022-10-28T08:25:22.939Z,59.00
2022-10-28T08:27:50.993Z,58.10
2022-10-28T08:30:19.101Z,58.10
2022-10-28T08:32:47.180Z,58.10
2022-10-28T08:35:15.263Z,57.60
2022-10-28T08:37:46.203Z,57.50
2022-10-28T08:40:14.300Z,57.10
2022-10-28T08:42:49.715Z,57.00
2022-10-28T08:45:31.468Z,56.90
2022-10-28T08:48:33.737Z,56.70
2022-10-28T08:51:38.805Z,56.40
2022-10-28T08:54:26.427Z,56.30
2022-10-28T08:56:59.038Z,56.20
2022-10-28T08:59:40.588Z,56.20
2022-10-28T09:02:11.672Z,55.60
2022-10-28T09:04:45.657Z,56.20
2022-10-28T09:07:21.054Z,56.50
2022-10-28T09:09:51.399Z,56.30
2022-10-28T09:12:53.002Z,57.60
2022-10-28T09:15:45.790Z,57.60
2022-10-28T09:18:46.128Z,58.50
2022-10-28T09:21:30.198Z,58.20
2022-10-28T09:24:13.853Z,58.10
2022-10-28T09:26:54.559Z,58.40
2022-10-28T09:29:49.404Z,58.40
2022-10-28T09:32:56.181Z,58.40
2022-10-28T09:35:29.243Z,58.30
2022-10-28T09:38:24.307Z,58.30
2022-10-28T09:41:14.482Z,57.20
2022-10-28T09:44:14.138Z,56.60
2022-10-28T09:46:42.222Z,55.70
2022-10-28T09:49:21.201Z,56.40
2022-10-28T09:52:01.042Z,56.60
2022-10-28T09:54:40.063Z,57.40
2022-10-28T09:57:08.745Z,57.80
2022-10-28T09:59:37.409Z,57.60
2022-10-28T10:02:05.825Z,56.90
2022-10-28T10:04:35.903Z,57.20
2022-10-28T10:07:15.113Z,57.20
2022-10-28T10:09:44.500Z,57.20
2022-10-28T10:12:14.262Z,57.40
2022-10-28T10:14:49.204Z,57.50
2022-10-28T10:17:44.268Z,57.50
2022-10-28T10:20:21.977Z,57.70
2022-10-28T10:22:50.992Z,57.70
2022-10-28T10:25:19.106Z,57.80
2022-10-28T10:28:16.077Z,57.90
2022-10-28T10:30:59.418Z,57.90
2022-10-28T10:33:39.983Z,58.50
2022-10-28T10:36:11.046Z,58.20
2022-10-28T10:38:56.681Z,57.80
2022-10-28T10:41:42.389Z,57.70
2022-10-28T10:44:22.430Z,57.00
2022-10-28T10:47:06.016Z,56.80
2022-10-28T10:49:43.940Z,57.00
2022-10-28T10:52:26.246Z,58.10
2022-10-28T10:55:19.248Z,60.00
2022-10-28T10:57:48.867Z,62.70
2022-10-28T11:00:20.824Z,62.50
2022-10-28T11:02:53.494Z,64.20
2022-10-28T11:05:27.338Z,64.50
2022-10-28T11:08:34.478Z,65.30
2022-10-28T11:11:22.240Z,65.70
2022-10-28T11:14:24.643Z,65.10
2022-10-28T11:17:01.366Z,66.30
2022-10-28T11:19:33.909Z,67.30
2022-10-28T11:22:46.612Z,65.70
2022-10-28T11:25:32.604Z,65.40
2022-10-28T11:28:33.542Z,63.50
2022-10-28T11:31:58.990Z,63.30
2022-10-28T11:34:48.932Z,63.60
2022-10-28T11:38:00.908Z,63.50
2022-10-28T11:40:53.491Z,63.70
2022-10-28T11:43:54.374Z,63.70
2022-10-28T11:47:12.221Z,63.80
2022-10-28T11:50:04.759Z,64.20
2022-10-28T11:53:06.499Z,63.70
2022-10-28T11:55:45.119Z,63.10
2022-10-28T11:59:09.356Z,63.30
2022-10-28T12:01:49.774Z,62.80
2022-10-28T12:05:21.494Z,63.20
2022-10-28T12:08:28.297Z,63.10
2022-10-28T12:11:33.966Z,63.00
2022-10-28T12:14:24.123Z,62.80
2022-10-28T12:17:14.747Z,61.20
2022-10-28T12:20:18.019Z,60.70
2022-10-28T12:22:53.695Z,61.10
2022-10-28T12:25:27.978Z,61.50
2022-10-28T12:30:53.761Z,60.70
2022-10-28T12:33:32.881Z,59.60
2022-10-28T12:36:10.328Z,59.40
2022-10-28T12:38:50.047Z,58.90
2022-10-28T12:41:46.008Z,59.20
2022-10-28T12:44:20.913Z,59.20
2022-10-28T12:46:52.601Z,59.30
2022-10-28T12:49:51.282Z,59.70
2022-10-28T12:52:30.862Z,58.90
2022-10-28T12:55:27.043Z,59.30
2022-10-28T12:58:23.939Z,59.20
2022-10-28T13:01:04.614Z,59.30
2022-10-28T13:03:32.697Z,59.10
2022-10-28T13:06:58.252Z,59.80
2022-10-28T13:09:50.112Z,59.30
2022-10-28T13:12:39.541Z,60.00
2022-10-28T13:15:28.025Z,60.50
2022-10-28T13:18:35.589Z,60.20
2022-10-28T13:21:31.149Z,60.00
2022-10-28T13:24:36.082Z,60.10
2022-10-28T13:27:06.054Z,60.50
2022-10-28T13:29:36.203Z,60.80
2022-10-28T13:32:04.620Z,60.80
2022-10-28T13:34:37.408Z,61.30
2022-10-28T13:37:17.223Z,60.10
2022-10-28T13:39:47.370Z,60.50
2022-10-28T13:42:16.168Z,60.50
2022-10-28T13:45:02.493Z,60.70
2022-10-28T13:47:37.996Z,60.70
2022-10-28T13:50:11.035Z,60.60
2022-10-28T13:53:26.280Z,60.60
2022-10-28T13:55:58.426Z,60.60
2022-10-28T13:58:26.987Z,61.30
2022-10-28T14:00:55.280Z,61.40
2022-10-28T14:03:29.020Z,61.40
2022-10-28T14:06:09.272Z,61.30
2022-10-28T14:08:41.972Z,61.40
2022-10-28T14:11:26.256Z,61.80
2022-10-28T14:14:00.477Z,62.20
2022-10-28T14:16:40.781Z,61.60
2022-10-28T14:19:25.346Z,61.80
2022-10-28T14:22:17.483Z,62.30
2022-10-28T14:24:56.029Z,61.90
2022-10-28T14:27:48.626Z,62.60
2022-10-28T14:30:24.058Z,63.60
2022-10-28T14:36:37.357Z,65.10
2022-10-28T14:39:57.241Z,66.50
2022-10-28T14:43:23.940Z,67.70
2022-10-28T14:46:09.389Z,68.10
2022-10-28T14:48:55.569Z,68.40
2022-10-28T14:51:49.366Z,69.30
2022-10-28T14:54:54.660Z,68.30
2022-10-28T14:57:33.897Z,66.60
2022-10-28T15:00:17.215Z,66.20
2022-10-28T15:02:48.445Z,66.10
2022-10-28T15:05:22.248Z,65.60
2022-10-28T15:07:51.115Z,65.50
2022-10-28T15:10:23.327Z,65.10
2022-10-28T15:12:53.972Z,64.80
2022-10-28T15:15:29.075Z,64.30
2022-10-28T15:17:59.798Z,63.90
2022-10-28T15:20:33.898Z,64.30
2022-10-28T15:23:23.451Z,64.60
2022-10-28T15:26:26.942Z,65.00
2022-10-28T15:28:55.867Z,65.50
2022-10-28T15:31:24.069Z,65.60
2022-10-28T15:33:52.165Z,65.60
2022-10-28T15:36:23.985Z,65.70
2022-10-28T15:39:15.806Z,65.60
2022-10-28T15:41:51.186Z,65.40
2022-10-28T15:44:32.608Z,65.20
2022-10-28T15:47:21.814Z,65.20
2022-10-28T15:50:06.594Z,65.10
2022-10-28T15:52:42.691Z,65.10
2022-10-28T15:55:21.784Z,65.10
2022-10-28T15:58:20.382Z,65.00
2022-10-28T16:00:57.585Z,65.20
2022-10-28T16:05:59.846Z,66.30
2022-10-28T16:08:30.601Z,66.50
2022-10-28T16:11:14.130Z,66.60
2022-10-28T16:13:49.532Z,66.60
2022-10-28T16:16:28.321Z,67.10
2022-10-28T16:19:30.124Z,66.30
2022-10-28T16:21:58.300Z,66.10
2022-10-28T16:24:26.385Z,65.90
2022-10-28T16:26:54.704Z,65.70
2022-10-28T16:29:22.788Z,65.60
2022-10-28T16:31:52.865Z,65.50
2022-10-28T16:34:20.873Z,65.00
2022-10-28T16:36:48.976Z,64.80
2022-10-28T16:39:17.452Z,64.30
2022-10-28T16:41:48.536Z,63.80
2022-10-28T16:44:18.749Z,63.60
2022-10-28T16:46:46.820Z,63.30
2022-10-28T16:49:15.273Z,63.30
2022-10-28T16:51:45.281Z,63.30
2022-10-28T16:54:13.350Z,62.70
2022-10-28T16:56:41.441Z,62.60
2022-10-28T16:59:09.516Z,62.30
2022-10-28T17:01:38.379Z,62.30
2022-10-28T17:04:06.519Z,62.10
2022-10-28T17:06:34.584Z,62.10
2022-10-28T17:09:03.738Z,62.00
2022-10-28T17:14:05.190Z,61.50
2022-10-28T17:16:33.413Z,61.40
2022-10-28T17:19:02.325Z,61.50
2022-10-28T17:21:30.523Z,61.00
2022-10-28T17:23:58.600Z,61.00
2022-10-28T17:26:26.710Z,61.10
2022-10-28T17:28:54.766Z,60.80
2022-10-28T17:31:25.091Z,60.90
2022-10-28T17:33:55.160Z,60.60
2022-10-28T17:36:23.721Z,60.00
2022-10-28T17:38:51.681Z,60.10
2022-10-28T17:41:19.905Z,60.10
2022-10-28T17:43:47.964Z,60.30
2022-10-28T17:46:16.541Z,60.20
2022-10-28T17:48:45.194Z,60.10
2022-10-28T17:51:13.535Z,60.10
2022-10-28T17:53:41.731Z,60.40
2022-10-28T17:56:10.211Z,60.50
2022-10-28T17:58:38.263Z,60.60
2022-10-28T18:01:08.616Z,60.90
2022-10-28T18:03:39.051Z,61.00
2022-10-28T18:06:11.753Z,60.90
2022-10-28T18:08:42.772Z,61.00
2022-10-28T18:11:14.402Z,61.10
2022-10-28T18:13:45.450Z,61.20
2022-10-28T18:16:17.643Z,61.20
2022-10-28T18:18:45.695Z,61.00
2022-10-28T18:21:14.408Z,61.00
2022-10-28T18:23:42.705Z,61.00
2022-10-28T18:26:15.849Z,61.10
2022-10-28T18:28:45.601Z,61.10
2022-10-28T18:31:19.807Z,61.00
2022-10-28T18:33:49.216Z,61.10
2022-10-28T18:36:23.753Z,61.30
2022-10-28T18:38:52.200Z,61.30
2022-10-28T18:41:23.998Z,61.30
2022-10-28T18:43:57.844Z,61.20
2022-10-28T18:46:27.396Z,61.40
2022-10-28T18:48:58.326Z,61.50
2022-10-28T18:51:26.432Z,61.70
2022-10-28T18:53:55.694Z,61.70
2022-10-28T18:56:29.395Z,61.60
2022-10-28T18:58:58.616Z,61.60
2022-10-28T19:01:29.160Z,61.60
2022-10-28T19:04:00.767Z,61.60
2022-10-28T19:06:32.940Z,61.30
2022-10-28T19:09:04.659Z,61.50
2022-10-28T19:11:34.502Z,61.60
2022-10-28T19:14:06.335Z,61.60
2022-10-28T19:16:35.457Z,61.70
2022-10-28T19:19:05.229Z,61.70
2022-10-28T19:21:33.998Z,61.40
2022-10-28T19:24:02.560Z,61.50
2022-10-28T19:26:32.099Z,61.30
2022-10-28T19:29:00.286Z,61.20
2022-10-28T19:31:28.749Z,61.10
2022-10-28T19:33:57.291Z,61.20
2022-10-28T19:36:28.981Z,61.30
2022-10-28T19:38:58.260Z,61.60
2022-10-28T19:41:29.840Z,61.80
2022-10-28T19:44:01.261Z,62.20
2022-10-28T19:46:32.825Z,62.10
2022-10-28T19:49:04.626Z,62.10
2022-10-28T19:51:37.149Z,62.10
2022-10-28T19:54:10.391Z,62.30
2022-10-28T19:56:39.464Z,62.10
2022-10-28T19:59:07.876Z,62.10
2022-10-28T20:01:38.523Z,61.80
2022-10-28T20:04:08.123Z,61.50
2022-10-28T20:06:40.882Z,60.90
2022-10-28T20:09:09.686Z,60.10
2022-10-28T20:11:39.327Z,59.90
2022-10-28T20:14:11.878Z,59.70
2022-10-28T20:16:42.990Z,59.60
2022-10-28T20:19:12.120Z,59.70
2022-10-28T20:21:41.142Z,60.00
2022-10-28T20:24:09.955Z,60.10
2022-10-28T20:26:39.851Z,59.70
2022-10-28T20:29:11.171Z,61.00
2022-10-28T20:31:39.500Z,59.70
2022-10-28T20:34:08.298Z,59.30
2022-10-28T20:36:44.176Z,59.10
2022-10-28T20:39:17.874Z,58.30
2022-10-28T20:41:47.778Z,58.60
2022-10-28T20:44:16.336Z,58.30
2022-10-28T20:46:46.565Z,57.60
2022-10-28T20:49:15.127Z,58.00
2022-10-28T20:51:43.449Z,59.20
2022-10-28T20:54:11.534Z,58.90
2022-10-28T20:56:42.013Z,59.20
2022-10-28T20:59:10.577Z,59.20
2022-10-28T21:01:41.130Z,59.50
2022-10-28T21:04:11.322Z,59.90
2022-10-28T21:06:40.344Z,60.60
2022-10-28T21:09:09.075Z,61.20
2022-10-28T21:11:37.136Z,62.00
2022-10-28T21:14:05.189Z,62.80
2022-10-28T21:16:33.292Z,63.70
2022-10-28T21:19:01.546Z,64.20
2022-10-28T21:21:30.761Z,64.60
2022-10-28T21:23:58.839Z,65.30
2022-10-28T21:26:27.404Z,65.60
2022-10-28T21:28:56.571Z,66.00
2022-10-28T21:31:25.247Z,66.30
2022-10-28T21:33:53.771Z,67.20
2022-10-28T21:36:23.111Z,67.70
2022-10-28T21:38:56.097Z,68.40
2022-10-28T21:41:25.277Z,68.90
2022-10-28T21:43:54.419Z,68.60
2022-10-28T21:46:23.352Z,68.80
2022-10-28T21:48:52.640Z,69.00
2022-10-28T21:51:20.728Z,69.50
2022-10-28T21:53:48.788Z,69.70
2022-10-28T21:56:19.850Z,69.80
2022-10-28T21:58:50.147Z,69.60
2022-10-28T22:01:24.661Z,69.30
2022-10-28T22:03:55.555Z,69.30
2022-10-28T22:06:24.599Z,69.40
2022-10-28T22:08:56.242Z,69.30
2022-10-28T22:11:25.546Z,68.90
2022-10-28T22:14:00.000Z,68.00
2022-10-28T22:16:31.290Z,67.50
2022-10-28T22:19:02.519Z,67.20
2022-10-28T22:21:34.081Z,66.80
2022-10-28T22:24:02.139Z,66.80
2022-10-28T22:26:33.129Z,66.70
2022-10-28T22:29:01.330Z,66.90
2022-10-28T22:31:31.922Z,66.90
2022-10-28T22:34:00.857Z,66.90
2022-10-28T22:36:30.279Z,67.00
2022-10-28T22:38:58.571Z,66.90
2022-10-28T22:41:31.695Z,67.00
2022-10-28T22:44:01.935Z,67.10
2022-10-28T22:46:33.865Z,67.50
2022-10-28T22:49:01.922Z,67.60
2022-10-28T22:51:30.363Z,67.60
2022-10-28T22:53:58.805Z,68.00
2022-10-28T22:56:27.849Z,68.40
2022-10-28T22:58:58.811Z,68.60
2022-10-28T23:01:28.677Z,68.60
2022-10-28T23:03:57.020Z,68.80
2022-10-28T23:06:27.506Z,68.80
2022-10-28T23:08:55.946Z,69.40
2022-10-28T23:11:24.284Z,69.70
2022-10-28T23:13:54.632Z,69.80
2022-10-28T23:16:24.293Z,69.60
2022-10-28T23:18:55.831Z,69.80
2022-10-28T23:21:25.987Z,70.50
2022-10-28T23:24:01.839Z,71.00
2022-10-28T23:26:30.426Z,72.30
2022-10-28T23:29:00.789Z,71.20
2022-10-28T23:31:29.461Z,71.20
2022-10-28T23:33:59.350Z,71.30
2022-10-28T23:36:27.530Z,71.40
2022-10-28T23:38:57.198Z,71.90
2022-10-28T23:41:25.391Z,72.70
2022-10-28T23:43:53.458Z,72.60
2022-10-28T23:46:21.779Z,72.50
2022-10-28T23:48:49.859Z,72.50
2022-10-28T23:51:19.403Z,72.30
2022-10-28T23:53:47.587Z,71.70
2022-10-28T23:56:15.686Z,72.10
2022-10-28T23:58:43.751Z,72.00
